sensor_id;sensor_type;location;lat;lon;timestamp;temperature;humidity
8939;DHT22;4504;48.810;9.172;2022-08-19T00:00:50;23.30;91.80
8939;DHT22;4504;48.810;9.172;2022-08-19T00:03:17;23.30;91.70
8939;DHT22;4504;48.810;9.172;2022-08-19T00:05:44;23.30;92.10
8939;DHT22;4504;48.810;9.172;2022-08-19T00:08:11;23.20;91.70
8939;DHT22;4504;48.810;9.172;2022-08-19T00:10:40;23.20;91.90
8939;DHT22;4504;48.810;9.172;2022-08-19T00:13:07;23.20;91.80
8939;DHT22;4504;48.810;9.172;2022-08-19T00:15:35;23.20;91.80
8939;DHT22;4504;48.810;9.172;2022-08-19T00:18:02;23.20;91.70
8939;DHT22;4504;48.810;9.172;2022-08-19T00:20:29;23.20;91.80
8939;DHT22;4504;48.810;9.172;2022-08-19T00:22:56;23.20;91.70
8939;DHT22;4504;48.810;9.172;2022-08-19T00:25:23;23.10;91.80
8939;DHT22;4504;48.810;9.172;2022-08-19T00:27:52;23.20;91.90
8939;DHT22;4504;48.810;9.172;2022-08-19T00:30:19;23.10;91.90
8939;DHT22;4504;48.810;9.172;2022-08-19T00:32:46;23.10;91.90
8939;DHT22;4504;48.810;9.172;2022-08-19T00:35:13;23.10;91.90
8939;DHT22;4504;48.810;9.172;2022-08-19T00:37:40;23.20;91.90
8939;DHT22;4504;48.810;9.172;2022-08-19T00:40:11;23.10;92.00
8939;DHT22;4504;48.810;9.172;2022-08-19T00:42:38;23.10;92.00
8939;DHT22;4504;48.810;9.172;2022-08-19T00:45:10;23.10;92.00
8939;DHT22;4504;48.810;9.172;2022-08-19T00:47:38;23.00;92.10
8939;DHT22;4504;48.810;9.172;2022-08-19T00:50:08;23.00;92.30
8939;DHT22;4504;48.810;9.172;2022-08-19T00:52:39;23.00;92.30
8939;DHT22;4504;48.810;9.172;2022-08-19T00:55:10;23.00;92.50
8939;DHT22;4504;48.810;9.172;2022-08-19T00:57:42;23.00;92.40
8939;DHT22;4504;48.810;9.172;2022-08-19T01:00:15;23.00;92.30
8939;DHT22;4504;48.810;9.172;2022-08-19T01:02:43;22.90;92.50
8939;DHT22;4504;48.810;9.172;2022-08-19T01:05:13;22.90;92.50
8939;DHT22;4504;48.810;9.172;2022-08-19T01:07:41;22.90;92.50
8939;DHT22;4504;48.810;9.172;2022-08-19T01:10:11;22.90;92.60
8939;DHT22;4504;48.810;9.172;2022-08-19T01:12:39;22.90;92.70
8939;DHT22;4504;48.810;9.172;2022-08-19T01:15:09;23.00;92.80
8939;DHT22;4504;48.810;9.172;2022-08-19T01:17:39;22.90;92.70
8939;DHT22;4504;48.810;9.172;2022-08-19T01:20:10;22.90;92.70
8939;DHT22;4504;48.810;9.172;2022-08-19T01:22:43;22.90;92.80
8939;DHT22;4504;48.810;9.172;2022-08-19T01:25:12;22.90;92.80
8939;DHT22;4504;48.810;9.172;2022-08-19T01:27:40;22.90;92.90
8939;DHT22;4504;48.810;9.172;2022-08-19T01:30:10;22.90;93.00
8939;DHT22;4504;48.810;9.172;2022-08-19T01:32:37;22.90;92.90
8939;DHT22;4504;48.810;9.172;2022-08-19T01:35:05;22.90;93.10
8939;DHT22;4504;48.810;9.172;2022-08-19T01:37:44;22.80;93.10
8939;DHT22;4504;48.810;9.172;2022-08-19T01:40:11;22.80;93.20
8939;DHT22;4504;48.810;9.172;2022-08-19T01:42:39;22.80;93.50
8939;DHT22;4504;48.810;9.172;2022-08-19T01:45:07;22.80;93.50
8939;DHT22;4504;48.810;9.172;2022-08-19T01:47:35;22.80;93.20
8939;DHT22;4504;48.810;9.172;2022-08-19T01:50:03;22.80;93.30
8939;DHT22;4504;48.810;9.172;2022-08-19T01:52:31;22.80;93.40
8939;DHT22;4504;48.810;9.172;2022-08-19T01:54:59;22.80;93.40
8939;DHT22;4504;48.810;9.172;2022-08-19T01:57:26;22.90;93.30
8939;DHT22;4504;48.810;9.172;2022-08-19T01:59:54;22.80;93.30
8939;DHT22;4504;48.810;9.172;2022-08-19T02:02:21;22.80;93.50
8939;DHT22;4504;48.810;9.172;2022-08-19T02:04:48;22.70;93.60
8939;DHT22;4504;48.810;9.172;2022-08-19T02:07:18;22.80;93.70
8939;DHT22;4504;48.810;9.172;2022-08-19T02:09:46;22.70;93.80
8939;DHT22;4504;48.810;9.172;2022-08-19T02:12:15;22.70;93.90
8939;DHT22;4504;48.810;9.172;2022-08-19T02:14:43;22.70;94.00
8939;DHT22;4504;48.810;9.172;2022-08-19T02:17:10;22.70;93.90
8939;DHT22;4504;48.810;9.172;2022-08-19T02:19:37;22.70;94.00
8939;DHT22;4504;48.810;9.172;2022-08-19T02:22:04;22.70;94.00
8939;DHT22;4504;48.810;9.172;2022-08-19T02:24:31;22.60;94.20
8939;DHT22;4504;48.810;9.172;2022-08-19T02:26:58;22.60;94.20
8939;DHT22;4504;48.810;9.172;2022-08-19T02:29:26;22.60;94.40
8939;DHT22;4504;48.810;9.172;2022-08-19T02:31:54;22.50;94.50
8939;DHT22;4504;48.810;9.172;2022-08-19T02:34:22;22.50;94.60
8939;DHT22;4504;48.810;9.172;2022-08-19T02:36:50;22.50;94.70
8939;DHT22;4504;48.810;9.172;2022-08-19T02:39:18;22.50;94.80
8939;DHT22;4504;48.810;9.172;2022-08-19T02:41:44;22.40;94.90
8939;DHT22;4504;48.810;9.172;2022-08-19T02:44:11;22.40;95.10
8939;DHT22;4504;48.810;9.172;2022-08-19T02:46:40;22.40;95.20
8939;DHT22;4504;48.810;9.172;2022-08-19T02:49:07;22.40;95.20
8939;DHT22;4504;48.810;9.172;2022-08-19T02:51:37;22.40;95.20
8939;DHT22;4504;48.810;9.172;2022-08-19T02:54:05;22.40;95.30
8939;DHT22;4504;48.810;9.172;2022-08-19T02:56:34;22.40;95.40
8939;DHT22;4504;48.810;9.172;2022-08-19T02:59:02;22.40;95.50
8939;DHT22;4504;48.810;9.172;2022-08-19T03:01:33;22.40;95.60
8939;DHT22;4504;48.810;9.172;2022-08-19T03:04:04;22.40;95.70
8939;DHT22;4504;48.810;9.172;2022-08-19T03:06:35;22.30;95.80
8939;DHT22;4504;48.810;9.172;2022-08-19T03:09:02;22.40;95.80
8939;DHT22;4504;48.810;9.172;2022-08-19T03:11:31;22.40;95.90
8939;DHT22;4504;48.810;9.172;2022-08-19T03:13:59;22.40;96.00
8939;DHT22;4504;48.810;9.172;2022-08-19T03:16:28;22.30;96.00
8939;DHT22;4504;48.810;9.172;2022-08-19T03:18:57;22.30;96.00
8939;DHT22;4504;48.810;9.172;2022-08-19T03:21:28;22.30;96.10
8939;DHT22;4504;48.810;9.172;2022-08-19T03:23:56;22.30;96.30
8939;DHT22;4504;48.810;9.172;2022-08-19T03:26:24;22.30;96.40
8939;DHT22;4504;48.810;9.172;2022-08-19T03:28:51;22.20;96.40
8939;DHT22;4504;48.810;9.172;2022-08-19T03:31:20;22.30;96.70
8939;DHT22;4504;48.810;9.172;2022-08-19T03:33:48;22.20;96.70
8939;DHT22;4504;48.810;9.172;2022-08-19T03:36:18;22.20;96.90
8939;DHT22;4504;48.810;9.172;2022-08-19T03:38:49;22.20;97.30
8939;DHT22;4504;48.810;9.172;2022-08-19T03:41:18;22.10;97.00
8939;DHT22;4504;48.810;9.172;2022-08-19T03:43:46;22.10;97.10
8939;DHT22;4504;48.810;9.172;2022-08-19T03:46:16;22.10;97.10
8939;DHT22;4504;48.810;9.172;2022-08-19T03:48:47;22.10;97.20
8939;DHT22;4504;48.810;9.172;2022-08-19T03:51:19;22.00;97.10
8939;DHT22;4504;48.810;9.172;2022-08-19T03:53:48;22.20;97.30
8939;DHT22;4504;48.810;9.172;2022-08-19T03:56:15;22.00;97.20
8939;DHT22;4504;48.810;9.172;2022-08-19T03:58:43;22.00;97.30
8939;DHT22;4504;48.810;9.172;2022-08-19T04:01:13;22.00;97.30
8939;DHT22;4504;48.810;9.172;2022-08-19T04:03:41;22.00;97.30
8939;DHT22;4504;48.810;9.172;2022-08-19T04:06:11;22.00;97.40
8939;DHT22;4504;48.810;9.172;2022-08-19T04:08:39;22.00;97.40
8939;DHT22;4504;48.810;9.172;2022-08-19T04:11:09;22.00;97.50
8939;DHT22;4504;48.810;9.172;2022-08-19T04:13:36;22.00;97.40
8939;DHT22;4504;48.810;9.172;2022-08-19T04:16:04;22.00;97.50
8939;DHT22;4504;48.810;9.172;2022-08-19T04:18:32;21.90;97.50
8939;DHT22;4504;48.810;9.172;2022-08-19T04:20:59;21.90;97.50
8939;DHT22;4504;48.810;9.172;2022-08-19T04:23:27;21.90;97.60
8939;DHT22;4504;48.810;9.172;2022-08-19T04:25:55;21.80;97.70
8939;DHT22;4504;48.810;9.172;2022-08-19T04:28:24;21.80;97.70
8939;DHT22;4504;48.810;9.172;2022-08-19T04:30:52;21.80;97.90
8939;DHT22;4504;48.810;9.172;2022-08-19T04:33:25;21.80;97.90
8939;DHT22;4504;48.810;9.172;2022-08-19T04:35:53;21.80;98.00
8939;DHT22;4504;48.810;9.172;2022-08-19T04:38:21;21.80;97.90
8939;DHT22;4504;48.810;9.172;2022-08-19T04:40:50;21.80;97.90
8939;DHT22;4504;48.810;9.172;2022-08-19T04:43:38;21.80;98.00
8939;DHT22;4504;48.810;9.172;2022-08-19T04:46:05;21.80;98.00
8939;DHT22;4504;48.810;9.172;2022-08-19T04:48:33;21.70;98.10
8939;DHT22;4504;48.810;9.172;2022-08-19T04:51:00;21.80;98.10
8939;DHT22;4504;48.810;9.172;2022-08-19T04:53:28;21.80;98.00
8939;DHT22;4504;48.810;9.172;2022-08-19T04:55:55;21.80;97.90
8939;DHT22;4504;48.810;9.172;2022-08-19T04:58:24;21.80;98.00
8939;DHT22;4504;48.810;9.172;2022-08-19T05:00:52;21.80;98.00
8939;DHT22;4504;48.810;9.172;2022-08-19T05:03:20;21.80;98.00
8939;DHT22;4504;48.810;9.172;2022-08-19T05:05:48;21.70;98.10
8939;DHT22;4504;48.810;9.172;2022-08-19T05:08:17;21.80;98.00
8939;DHT22;4504;48.810;9.172;2022-08-19T05:10:46;21.70;98.00
8939;DHT22;4504;48.810;9.172;2022-08-19T05:13:14;21.80;98.10
8939;DHT22;4504;48.810;9.172;2022-08-19T05:15:42;21.70;98.10
8939;DHT22;4504;48.810;9.172;2022-08-19T05:18:10;21.80;98.20
8939;DHT22;4504;48.810;9.172;2022-08-19T05:20:55;21.80;98.20
8939;DHT22;4504;48.810;9.172;2022-08-19T05:23:39;21.80;98.20
8939;DHT22;4504;48.810;9.172;2022-08-19T05:26:07;21.70;98.30
8939;DHT22;4504;48.810;9.172;2022-08-19T05:28:36;21.80;98.30
8939;DHT22;4504;48.810;9.172;2022-08-19T05:31:03;21.70;98.30
8939;DHT22;4504;48.810;9.172;2022-08-19T05:33:31;21.70;98.40
8939;DHT22;4504;48.810;9.172;2022-08-19T05:35:58;21.70;98.40
8939;DHT22;4504;48.810;9.172;2022-08-19T05:38:25;21.80;98.30
8939;DHT22;4504;48.810;9.172;2022-08-19T05:40:53;21.90;98.40
8939;DHT22;4504;48.810;9.172;2022-08-19T05:43:20;21.80;98.30
8939;DHT22;4504;48.810;9.172;2022-08-19T05:45:47;21.80;98.50
8939;DHT22;4504;48.810;9.172;2022-08-19T05:48:16;21.80;98.50
8939;DHT22;4504;48.810;9.172;2022-08-19T05:50:47;21.80;98.60
8939;DHT22;4504;48.810;9.172;2022-08-19T05:53:16;21.80;98.70
8939;DHT22;4504;48.810;9.172;2022-08-19T05:55:43;21.80;98.80
8939;DHT22;4504;48.810;9.172;2022-08-19T05:58:10;21.80;98.80
8939;DHT22;4504;48.810;9.172;2022-08-19T06:00:37;21.80;98.80
8939;DHT22;4504;48.810;9.172;2022-08-19T06:03:05;21.80;98.80
8939;DHT22;4504;48.810;9.172;2022-08-19T06:05:32;21.80;98.60
8939;DHT22;4504;48.810;9.172;2022-08-19T06:08:01;21.80;98.70
8939;DHT22;4504;48.810;9.172;2022-08-19T06:10:28;21.80;98.80
8939;DHT22;4504;48.810;9.172;2022-08-19T06:12:55;21.80;98.80
8939;DHT22;4504;48.810;9.172;2022-08-19T06:15:22;21.70;99.10
8939;DHT22;4504;48.810;9.172;2022-08-19T06:17:51;21.70;98.90
8939;DHT22;4504;48.810;9.172;2022-08-19T06:20:18;21.70;98.90
8939;DHT22;4504;48.810;9.172;2022-08-19T06:22:48;21.70;98.80
8939;DHT22;4504;48.810;9.172;2022-08-19T06:25:18;21.70;99.00
8939;DHT22;4504;48.810;9.172;2022-08-19T06:27:45;21.70;99.00
8939;DHT22;4504;48.810;9.172;2022-08-19T06:30:13;21.70;98.90
8939;DHT22;4504;48.810;9.172;2022-08-19T06:32:40;21.80;99.00
8939;DHT22;4504;48.810;9.172;2022-08-19T06:35:08;21.70;99.00
8939;DHT22;4504;48.810;9.172;2022-08-19T06:37:36;21.70;99.00
8939;DHT22;4504;48.810;9.172;2022-08-19T06:40:04;21.80;99.10
8939;DHT22;4504;48.810;9.172;2022-08-19T06:42:35;21.70;99.10
8939;DHT22;4504;48.810;9.172;2022-08-19T06:45:05;21.70;99.50
8939;DHT22;4504;48.810;9.172;2022-08-19T06:47:34;21.70;99.60
8939;DHT22;4504;48.810;9.172;2022-08-19T06:50:01;21.80;99.90
8939;DHT22;4504;48.810;9.172;2022-08-19T06:52:31;21.70;99.90
8939;DHT22;4504;48.810;9.172;2022-08-19T06:54:58;21.80;99.90
8939;DHT22;4504;48.810;9.172;2022-08-19T06:57:26;21.80;99.90
8939;DHT22;4504;48.810;9.172;2022-08-19T06:59:54;21.70;99.90
8939;DHT22;4504;48.810;9.172;2022-08-19T07:02:22;21.70;99.90
8939;DHT22;4504;48.810;9.172;2022-08-19T07:04:51;21.70;99.90
8939;DHT22;4504;48.810;9.172;2022-08-19T07:07:20;21.70;99.90
8939;DHT22;4504;48.810;9.172;2022-08-19T07:09:49;21.70;99.90
8939;DHT22;4504;48.810;9.172;2022-08-19T07:12:16;21.70;99.90
8939;DHT22;4504;48.810;9.172;2022-08-19T07:14:43;21.60;99.90
8939;DHT22;4504;48.810;9.172;2022-08-19T07:17:15;21.60;99.90
8939;DHT22;4504;48.810;9.172;2022-08-19T07:19:42;21.70;99.90
8939;DHT22;4504;48.810;9.172;2022-08-19T07:22:09;21.60;99.90
8939;DHT22;4504;48.810;9.172;2022-08-19T07:24:37;21.60;99.90
8939;DHT22;4504;48.810;9.172;2022-08-19T07:27:05;21.60;99.90
8939;DHT22;4504;48.810;9.172;2022-08-19T07:29:34;21.60;99.90
8939;DHT22;4504;48.810;9.172;2022-08-19T07:32:02;21.60;99.90
8939;DHT22;4504;48.810;9.172;2022-08-19T07:34:33;21.60;99.90
8939;DHT22;4504;48.810;9.172;2022-08-19T07:37:03;21.60;99.90
8939;DHT22;4504;48.810;9.172;2022-08-19T07:39:33;21.60;99.90
8939;DHT22;4504;48.810;9.172;2022-08-19T07:42:03;21.60;99.90
8939;DHT22;4504;48.810;9.172;2022-08-19T07:44:32;21.60;99.90
8939;DHT22;4504;48.810;9.172;2022-08-19T07:47:00;21.60;99.90
8939;DHT22;4504;48.810;9.172;2022-08-19T07:49:27;21.60;99.90
8939;DHT22;4504;48.810;9.172;2022-08-19T07:51:58;21.60;99.90
8939;DHT22;4504;48.810;9.172;2022-08-19T07:54:29;21.60;99.90
8939;DHT22;4504;48.810;9.172;2022-08-19T07:56:57;21.60;99.90
8939;DHT22;4504;48.810;9.172;2022-08-19T07:59:24;21.60;99.90
8939;DHT22;4504;48.810;9.172;2022-08-19T08:01:51;21.60;99.90
8939;DHT22;4504;48.810;9.172;2022-08-19T08:04:19;21.60;99.90
8939;DHT22;4504;48.810;9.172;2022-08-19T08:07:06;21.60;99.90
8939;DHT22;4504;48.810;9.172;2022-08-19T08:09:52;21.60;99.90
8939;DHT22;4504;48.810;9.172;2022-08-19T08:12:22;21.60;99.90
8939;DHT22;4504;48.810;9.172;2022-08-19T08:14:53;21.70;99.90
8939;DHT22;4504;48.810;9.172;2022-08-19T08:17:22;21.60;99.90
8939;DHT22;4504;48.810;9.172;2022-08-19T08:19:50;21.70;99.90
8939;DHT22;4504;48.810;9.172;2022-08-19T08:22:20;21.70;99.80
8939;DHT22;4504;48.810;9.172;2022-08-19T08:25:05;21.60;99.70
8939;DHT22;4504;48.810;9.172;2022-08-19T08:27:36;21.70;99.80
8939;DHT22;4504;48.810;9.172;2022-08-19T08:30:06;21.60;99.80
8939;DHT22;4504;48.810;9.172;2022-08-19T08:32:35;21.70;99.80
8939;DHT22;4504;48.810;9.172;2022-08-19T08:35:03;21.70;99.80
8939;DHT22;4504;48.810;9.172;2022-08-19T08:37:32;21.70;99.70
8939;DHT22;4504;48.810;9.172;2022-08-19T08:40:01;21.70;99.90
8939;DHT22;4504;48.810;9.172;2022-08-19T08:42:34;21.70;99.90
8939;DHT22;4504;48.810;9.172;2022-08-19T08:45:05;21.70;99.90
8939;DHT22;4504;48.810;9.172;2022-08-19T08:47:38;21.70;99.90
8939;DHT22;4504;48.810;9.172;2022-08-19T08:50:10;21.70;99.90
8939;DHT22;4504;48.810;9.172;2022-08-19T08:52:45;21.70;99.90
8939;DHT22;4504;48.810;9.172;2022-08-19T08:55:15;21.70;99.90
8939;DHT22;4504;48.810;9.172;2022-08-19T08:57:55;21.70;99.90
8939;DHT22;4504;48.810;9.172;2022-08-19T09:00:26;21.70;99.90
8939;DHT22;4504;48.810;9.172;2022-08-19T09:02:55;21.70;99.90
8939;DHT22;4504;48.810;9.172;2022-08-19T09:05:26;21.70;99.90
8939;DHT22;4504;48.810;9.172;2022-08-19T09:08:00;21.70;99.90
8939;DHT22;4504;48.810;9.172;2022-08-19T09:10:32;21.70;99.90
8939;DHT22;4504;48.810;9.172;2022-08-19T09:13:07;21.70;99.90
8939;DHT22;4504;48.810;9.172;2022-08-19T09:15:39;21.70;99.90
8939;DHT22;4504;48.810;9.172;2022-08-19T09:18:08;21.70;99.90
8939;DHT22;4504;48.810;9.172;2022-08-19T09:20:35;21.80;99.90
8939;DHT22;4504;48.810;9.172;2022-08-19T09:23:03;21.80;99.90
8939;DHT22;4504;48.810;9.172;2022-08-19T09:25:31;21.80;99.90
8939;DHT22;4504;48.810;9.172;2022-08-19T09:28:00;21.80;99.90
8939;DHT22;4504;48.810;9.172;2022-08-19T09:30:30;21.90;99.90
8939;DHT22;4504;48.810;9.172;2022-08-19T09:32:57;21.90;99.90
8939;DHT22;4504;48.810;9.172;2022-08-19T09:35:27;22.00;99.90
8939;DHT22;4504;48.810;9.172;2022-08-19T09:37:55;22.00;99.90
8939;DHT22;4504;48.810;9.172;2022-08-19T09:40:25;21.90;99.90
8939;DHT22;4504;48.810;9.172;2022-08-19T09:42:52;21.90;99.90
8939;DHT22;4504;48.810;9.172;2022-08-19T09:45:21;22.00;99.90
8939;DHT22;4504;48.810;9.172;2022-08-19T09:47:49;22.00;99.90
8939;DHT22;4504;48.810;9.172;2022-08-19T09:50:17;22.00;99.90
8939;DHT22;4504;48.810;9.172;2022-08-19T09:52:45;22.00;99.90
8939;DHT22;4504;48.810;9.172;2022-08-19T09:55:12;22.10;99.90
8939;DHT22;4504;48.810;9.172;2022-08-19T09:57:42;22.10;99.90
8939;DHT22;4504;48.810;9.172;2022-08-19T10:00:10;22.10;99.90
8939;DHT22;4504;48.810;9.172;2022-08-19T10:02:37;22.10;99.90
8939;DHT22;4504;48.810;9.172;2022-08-19T10:05:05;22.10;99.90
8939;DHT22;4504;48.810;9.172;2022-08-19T10:07:50;22.10;99.90
8939;DHT22;4504;48.810;9.172;2022-08-19T10:10:17;22.20;99.90
8939;DHT22;4504;48.810;9.172;2022-08-19T10:12:45;22.30;99.90
8939;DHT22;4504;48.810;9.172;2022-08-19T10:15:13;22.30;99.90
8939;DHT22;4504;48.810;9.172;2022-08-19T10:17:41;22.30;99.90
8939;DHT22;4504;48.810;9.172;2022-08-19T10:20:08;22.30;99.90
8939;DHT22;4504;48.810;9.172;2022-08-19T10:22:35;22.30;99.90
8939;DHT22;4504;48.810;9.172;2022-08-19T10:25:05;22.30;99.90
8939;DHT22;4504;48.810;9.172;2022-08-19T10:27:32;22.30;99.90
8939;DHT22;4504;48.810;9.172;2022-08-19T10:30:00;22.30;99.90
8939;DHT22;4504;48.810;9.172;2022-08-19T10:32:28;22.40;99.90
8939;DHT22;4504;48.810;9.172;2022-08-19T10:34:55;22.30;99.90
8939;DHT22;4504;48.810;9.172;2022-08-19T10:37:23;22.40;99.90
8939;DHT22;4504;48.810;9.172;2022-08-19T10:39:50;22.40;99.90
8939;DHT22;4504;48.810;9.172;2022-08-19T10:42:18;22.50;99.90
8939;DHT22;4504;48.810;9.172;2022-08-19T10:44:46;22.50;99.90
8939;DHT22;4504;48.810;9.172;2022-08-19T10:47:15;22.60;99.80
8939;DHT22;4504;48.810;9.172;2022-08-19T10:49:42;22.70;99.70
8939;DHT22;4504;48.810;9.172;2022-08-19T10:52:26;22.60;99.50
8939;DHT22;4504;48.810;9.172;2022-08-19T10:54:59;22.80;99.50
8939;DHT22;4504;48.810;9.172;2022-08-19T10:57:44;22.70;99.00
8939;DHT22;4504;48.810;9.172;2022-08-19T11:00:13;22.70;98.70
8939;DHT22;4504;48.810;9.172;2022-08-19T11:02:42;22.70;98.80
8939;DHT22;4504;48.810;9.172;2022-08-19T11:05:09;22.80;98.90
8939;DHT22;4504;48.810;9.172;2022-08-19T11:07:38;22.80;98.70
8939;DHT22;4504;48.810;9.172;2022-08-19T11:10:06;22.70;98.60
8939;DHT22;4504;48.810;9.172;2022-08-19T11:12:33;22.70;98.40
8939;DHT22;4504;48.810;9.172;2022-08-19T11:15:00;22.70;98.60
8939;DHT22;4504;48.810;9.172;2022-08-19T11:17:27;22.80;98.10
8939;DHT22;4504;48.810;9.172;2022-08-19T11:19:58;22.90;97.90
8939;DHT22;4504;48.810;9.172;2022-08-19T11:22:28;22.80;97.80
8939;DHT22;4504;48.810;9.172;2022-08-19T11:24:55;23.00;97.50
8939;DHT22;4504;48.810;9.172;2022-08-19T11:27:22;23.00;97.50
8939;DHT22;4504;48.810;9.172;2022-08-19T11:29:49;23.00;97.40
8939;DHT22;4504;48.810;9.172;2022-08-19T11:32:16;23.00;97.20
8939;DHT22;4504;48.810;9.172;2022-08-19T11:34:43;23.00;96.80
8939;DHT22;4504;48.810;9.172;2022-08-19T11:37:11;23.00;96.40
8939;DHT22;4504;48.810;9.172;2022-08-19T11:39:38;23.00;96.40
8939;DHT22;4504;48.810;9.172;2022-08-19T11:42:06;23.10;96.30
8939;DHT22;4504;48.810;9.172;2022-08-19T11:44:54;23.10;96.00
8939;DHT22;4504;48.810;9.172;2022-08-19T11:47:21;23.10;96.10
8939;DHT22;4504;48.810;9.172;2022-08-19T11:49:48;23.20;95.90
8939;DHT22;4504;48.810;9.172;2022-08-19T11:52:16;23.20;95.80
8939;DHT22;4504;48.810;9.172;2022-08-19T11:54:43;23.20;95.70
8939;DHT22;4504;48.810;9.172;2022-08-19T11:57:10;23.30;95.60
8939;DHT22;4504;48.810;9.172;2022-08-19T11:59:37;23.30;95.80
8939;DHT22;4504;48.810;9.172;2022-08-19T12:02:04;23.40;95.50
8939;DHT22;4504;48.810;9.172;2022-08-19T12:04:31;23.40;95.40
8939;DHT22;4504;48.810;9.172;2022-08-19T12:06:58;23.40;95.10
8939;DHT22;4504;48.810;9.172;2022-08-19T12:09:26;23.40;95.30
8939;DHT22;4504;48.810;9.172;2022-08-19T12:11:53;23.40;95.20
8939;DHT22;4504;48.810;9.172;2022-08-19T12:14:20;23.40;94.90
8939;DHT22;4504;48.810;9.172;2022-08-19T12:16:48;23.50;94.80
8939;DHT22;4504;48.810;9.172;2022-08-19T12:19:15;23.50;95.10
8939;DHT22;4504;48.810;9.172;2022-08-19T12:21:42;23.50;95.00
8939;DHT22;4504;48.810;9.172;2022-08-19T12:24:09;23.50;94.60
8939;DHT22;4504;48.810;9.172;2022-08-19T12:26:38;23.50;94.80
8939;DHT22;4504;48.810;9.172;2022-08-19T12:29:05;23.50;94.80
8939;DHT22;4504;48.810;9.172;2022-08-19T12:31:32;23.50;95.00
8939;DHT22;4504;48.810;9.172;2022-08-19T12:33:59;23.50;95.00
8939;DHT22;4504;48.810;9.172;2022-08-19T12:36:27;23.50;94.90
8939;DHT22;4504;48.810;9.172;2022-08-19T12:38:53;23.50;94.90
8939;DHT22;4504;48.810;9.172;2022-08-19T12:41:21;23.50;94.90
8939;DHT22;4504;48.810;9.172;2022-08-19T12:43:49;23.60;94.80
8939;DHT22;4504;48.810;9.172;2022-08-19T12:46:17;23.60;95.10
8939;DHT22;4504;48.810;9.172;2022-08-19T12:48:45;23.60;95.50
8939;DHT22;4504;48.810;9.172;2022-08-19T12:51:15;23.60;95.60
8939;DHT22;4504;48.810;9.172;2022-08-19T12:53:44;23.60;96.10
8939;DHT22;4504;48.810;9.172;2022-08-19T12:56:11;23.70;97.00
8939;DHT22;4504;48.810;9.172;2022-08-19T12:58:40;23.70;97.60
8939;DHT22;4504;48.810;9.172;2022-08-19T13:01:11;23.70;98.30
8939;DHT22;4504;48.810;9.172;2022-08-19T13:03:39;23.70;98.70
8939;DHT22;4504;48.810;9.172;2022-08-19T13:06:07;23.70;98.80
8939;DHT22;4504;48.810;9.172;2022-08-19T13:08:34;23.70;99.10
8939;DHT22;4504;48.810;9.172;2022-08-19T13:11:09;23.70;99.20
8939;DHT22;4504;48.810;9.172;2022-08-19T13:13:38;23.70;99.40
8939;DHT22;4504;48.810;9.172;2022-08-19T13:16:08;23.60;99.60
8939;DHT22;4504;48.810;9.172;2022-08-19T13:18:37;23.70;99.80
8939;DHT22;4504;48.810;9.172;2022-08-19T13:21:05;23.60;99.90
8939;DHT22;4504;48.810;9.172;2022-08-19T13:23:33;23.60;99.90
8939;DHT22;4504;48.810;9.172;2022-08-19T13:26:03;23.60;99.90
8939;DHT22;4504;48.810;9.172;2022-08-19T13:28:31;23.60;99.90
8939;DHT22;4504;48.810;9.172;2022-08-19T13:31:16;23.60;99.90
8939;DHT22;4504;48.810;9.172;2022-08-19T13:34:01;23.60;99.90
8939;DHT22;4504;48.810;9.172;2022-08-19T13:36:28;23.60;99.90
8939;DHT22;4504;48.810;9.172;2022-08-19T13:38:55;23.60;99.90
8939;DHT22;4504;48.810;9.172;2022-08-19T13:41:23;23.50;99.90
8939;DHT22;4504;48.810;9.172;2022-08-19T13:43:50;23.50;99.90
8939;DHT22;4504;48.810;9.172;2022-08-19T13:46:19;23.50;99.90
8939;DHT22;4504;48.810;9.172;2022-08-19T13:48:46;23.50;99.90
8939;DHT22;4504;48.810;9.172;2022-08-19T13:51:14;23.40;99.90
8939;DHT22;4504;48.810;9.172;2022-08-19T13:53:42;23.30;99.90
8939;DHT22;4504;48.810;9.172;2022-08-19T13:56:11;23.30;99.90
8939;DHT22;4504;48.810;9.172;2022-08-19T13:58:39;23.40;99.90
8939;DHT22;4504;48.810;9.172;2022-08-19T14:01:06;23.30;99.90
8939;DHT22;4504;48.810;9.172;2022-08-19T14:03:35;23.30;99.90
8939;DHT22;4504;48.810;9.172;2022-08-19T14:06:02;23.20;99.90
8939;DHT22;4504;48.810;9.172;2022-08-19T14:08:29;23.20;99.90
8939;DHT22;4504;48.810;9.172;2022-08-19T14:10:58;23.10;99.90
8939;DHT22;4504;48.810;9.172;2022-08-19T14:13:25;23.10;99.90
8939;DHT22;4504;48.810;9.172;2022-08-19T14:15:52;23.10;99.90
8939;DHT22;4504;48.810;9.172;2022-08-19T14:18:20;23.10;99.90
8939;DHT22;4504;48.810;9.172;2022-08-19T14:20:48;23.10;99.90
8939;DHT22;4504;48.810;9.172;2022-08-19T14:23:15;23.00;99.90
8939;DHT22;4504;48.810;9.172;2022-08-19T14:25:43;23.10;99.90
8939;DHT22;4504;48.810;9.172;2022-08-19T14:28:10;23.10;99.90
8939;DHT22;4504;48.810;9.172;2022-08-19T14:30:38;23.10;99.90
8939;DHT22;4504;48.810;9.172;2022-08-19T14:33:06;23.10;99.90
8939;DHT22;4504;48.810;9.172;2022-08-19T14:35:34;23.10;99.90
8939;DHT22;4504;48.810;9.172;2022-08-19T14:38:03;23.10;99.90
8939;DHT22;4504;48.810;9.172;2022-08-19T14:40:31;23.00;99.90
8939;DHT22;4504;48.810;9.172;2022-08-19T14:43:00;23.00;99.90
8939;DHT22;4504;48.810;9.172;2022-08-19T14:45:30;23.10;99.90
8939;DHT22;4504;48.810;9.172;2022-08-19T14:47:58;23.00;99.90
8939;DHT22;4504;48.810;9.172;2022-08-19T14:50:26;23.10;99.90
8939;DHT22;4504;48.810;9.172;2022-08-19T14:52:58;23.00;99.90
8939;DHT22;4504;48.810;9.172;2022-08-19T14:55:26;23.00;99.90
8939;DHT22;4504;48.810;9.172;2022-08-19T14:57:53;23.10;99.90
8939;DHT22;4504;48.810;9.172;2022-08-19T15:00:21;23.00;99.90
8939;DHT22;4504;48.810;9.172;2022-08-19T15:02:50;23.00;99.90
8939;DHT22;4504;48.810;9.172;2022-08-19T15:05:17;23.10;99.90
8939;DHT22;4504;48.810;9.172;2022-08-19T15:07:44;23.10;99.90
8939;DHT22;4504;48.810;9.172;2022-08-19T15:10:13;23.10;99.90
8939;DHT22;4504;48.810;9.172;2022-08-19T15:12:42;23.20;99.90
8939;DHT22;4504;48.810;9.172;2022-08-19T15:15:12;23.20;99.90
8939;DHT22;4504;48.810;9.172;2022-08-19T15:17:40;23.20;99.90
8939;DHT22;4504;48.810;9.172;2022-08-19T15:20:09;23.30;99.90
8939;DHT22;4504;48.810;9.172;2022-08-19T15:22:37;23.30;99.90
8939;DHT22;4504;48.810;9.172;2022-08-19T15:25:05;23.30;99.90
8939;DHT22;4504;48.810;9.172;2022-08-19T15:27:33;23.40;99.90
8939;DHT22;4504;48.810;9.172;2022-08-19T15:30:03;23.40;99.90
8939;DHT22;4504;48.810;9.172;2022-08-19T15:32:31;23.50;99.90
8939;DHT22;4504;48.810;9.172;2022-08-19T15:34:58;23.50;99.90
8939;DHT22;4504;48.810;9.172;2022-08-19T15:37:27;23.50;99.90
8939;DHT22;4504;48.810;9.172;2022-08-19T15:39:54;23.60;99.90
8939;DHT22;4504;48.810;9.172;2022-08-19T15:42:20;23.60;99.90
8939;DHT22;4504;48.810;9.172;2022-08-19T15:44:47;23.70;99.90
8939;DHT22;4504;48.810;9.172;2022-08-19T15:47:18;23.80;99.90
8939;DHT22;4504;48.810;9.172;2022-08-19T15:49:45;23.80;99.90
8939;DHT22;4504;48.810;9.172;2022-08-19T15:52:12;23.80;99.90
8939;DHT22;4504;48.810;9.172;2022-08-19T15:54:39;23.80;99.90
8939;DHT22;4504;48.810;9.172;2022-08-19T15:57:06;23.80;99.90
8939;DHT22;4504;48.810;9.172;2022-08-19T15:59:50;23.90;99.90
8939;DHT22;4504;48.810;9.172;2022-08-19T16:02:36;24.00;99.90
8939;DHT22;4504;48.810;9.172;2022-08-19T16:05:22;23.90;99.90
8939;DHT22;4504;48.810;9.172;2022-08-19T16:08:08;24.00;99.90
8939;DHT22;4504;48.810;9.172;2022-08-19T16:10:35;24.00;99.90
8939;DHT22;4504;48.810;9.172;2022-08-19T16:13:03;24.00;99.90